createdAt,value
2022-09-11T00:00:45.814Z,5.05
2022-09-11T00:03:13.781Z,4.70
2022-09-11T00:05:41.831Z,11.77
2022-09-11T00:08:19.460Z,5.15
2022-09-11T00:10:48.600Z,6.97
2022-09-11T00:13:21.525Z,4.30
2022-09-11T00:15:50.360Z,5.63
2022-09-11T00:18:21.894Z,7.75
2022-09-11T00:23:18.719Z,5.85
2022-09-11T00:25:46.989Z,6.10
2022-09-11T00:28:21.952Z,6.80
2022-09-11T00:30:59.455Z,3.45
2022-09-11T00:33:27.649Z,3.45
2022-09-11T00:35:59.948Z,3.50
2022-09-11T00:38:28.692Z,6.18
2022-09-11T00:40:58.020Z,5.75
2022-09-11T00:43:26.771Z,5.47
2022-09-11T00:46:04.349Z,4.28
2022-09-11T00:48:34.334Z,4.88
2022-09-11T00:51:03.987Z,6.22
2022-09-11T00:53:34.329Z,3.30
2022-09-11T00:56:04.034Z,3.38
2022-09-11T00:58:34.252Z,5.67
2022-09-11T01:01:02.540Z,4.82
2022-09-11T01:03:32.234Z,4.32
2022-09-11T01:06:00.412Z,3.30
2022-09-11T01:08:29.157Z,6.13
2022-09-11T01:11:06.261Z,4.68
2022-09-11T01:14:01.288Z,2.70
2022-09-11T01:16:32.050Z,3.78
2022-09-11T01:19:44.264Z,6.28
2022-09-11T01:22:33.987Z,5.18
2022-09-11T01:25:09.377Z,4.75
2022-09-11T01:28:01.056Z,3.15
2022-09-11T01:30:33.958Z,10.68
2022-09-11T01:33:20.025Z,3.60
2022-09-11T01:35:58.589Z,4.05
2022-09-11T01:38:39.239Z,8.00
2022-09-11T01:41:09.286Z,5.22
2022-09-11T01:43:43.754Z,5.55
2022-09-11T01:46:11.571Z,3.55
2022-09-11T01:48:45.529Z,4.97
2022-09-11T01:51:19.094Z,4.45
2022-09-11T01:53:50.240Z,3.65
2022-09-11T01:56:29.801Z,3.75
2022-09-11T01:59:01.531Z,6.50
2022-09-11T02:01:33.234Z,4.93
2022-09-11T02:04:16.815Z,4.70
2022-09-11T02:07:04.381Z,7.85
2022-09-11T02:09:37.725Z,7.10
2022-09-11T02:12:07.733Z,2.33
2022-09-11T02:14:41.436Z,5.72
2022-09-11T02:17:36.706Z,9.60
2022-09-11T02:20:05.635Z,4.03
2022-09-11T02:22:33.849Z,3.88
2022-09-11T02:25:03.113Z,3.70
2022-09-11T02:27:33.829Z,4.80
2022-09-11T02:30:02.507Z,5.43
2022-09-11T02:32:33.117Z,4.97
2022-09-11T02:35:01.208Z,5.45
2022-09-11T02:37:34.816Z,5.03
2022-09-11T02:40:27.257Z,4.65
2022-09-11T02:43:14.344Z,5.25
2022-09-11T02:46:30.072Z,4.75
2022-09-11T02:49:08.445Z,4.40
2022-09-11T02:51:46.717Z,3.40
2022-09-11T02:54:33.950Z,2.75
2022-09-11T02:57:08.105Z,2.22
2022-09-11T02:59:42.724Z,4.53
2022-09-11T03:02:15.437Z,4.10
2022-09-11T03:04:43.104Z,5.00
2022-09-11T03:07:10.937Z,4.82
2022-09-11T03:09:38.618Z,4.78
2022-09-11T03:12:12.768Z,4.43
2022-09-11T03:14:40.949Z,3.65
2022-09-11T03:17:10.128Z,2.60
2022-09-11T03:19:37.841Z,4.30
2022-09-11T03:22:05.447Z,5.13
2022-09-11T03:24:33.651Z,2.80
2022-09-11T03:27:01.595Z,6.47
2022-09-11T03:29:31.848Z,9.82
2022-09-11T03:32:00.950Z,4.57
2022-09-11T03:34:30.088Z,7.13
2022-09-11T03:36:57.677Z,5.15
2022-09-11T03:39:25.628Z,4.82
2022-09-11T03:41:54.376Z,2.67
2022-09-11T03:44:24.188Z,6.55
2022-09-11T03:46:53.170Z,3.78
2022-09-11T03:49:20.732Z,5.35
2022-09-11T03:51:48.386Z,5.15
2022-09-11T03:54:17.796Z,2.95
2022-09-11T03:56:46.844Z,3.67
2022-09-11T03:59:16.165Z,5.20
2022-09-11T04:01:45.393Z,3.67
2022-09-11T04:04:13.276Z,2.08
2022-09-11T04:06:43.954Z,3.15
2022-09-11T04:09:11.781Z,2.55
2022-09-11T04:11:41.458Z,3.17
2022-09-11T04:14:16.220Z,3.25
2022-09-11T04:16:45.002Z,5.20
2022-09-11T04:19:13.494Z,4.22
2022-09-11T04:21:43.780Z,4.85
2022-09-11T04:24:11.569Z,3.22
2022-09-11T04:26:39.144Z,5.35
2022-09-11T04:29:13.254Z,2.70
2022-09-11T04:31:41.444Z,4.63
2022-09-11T04:34:11.537Z,5.15
2022-09-11T04:36:39.658Z,4.97
2022-09-11T04:39:12.014Z,2.22
2022-09-11T04:41:39.604Z,2.60
2022-09-11T04:44:07.234Z,5.30
2022-09-11T04:46:42.592Z,5.22
2022-09-11T04:49:11.650Z,5.63
2022-09-11T04:51:40.673Z,4.65
2022-09-11T04:54:14.849Z,3.08
2022-09-11T04:56:42.771Z,2.45
2022-09-11T04:59:19.803Z,3.55
2022-09-11T05:02:08.368Z,5.75
2022-09-11T05:04:39.993Z,4.22
2022-09-11T05:07:08.288Z,2.90
2022-09-11T05:09:36.002Z,8.00
2022-09-11T05:12:05.243Z,3.45
2022-09-11T05:14:35.979Z,3.10
2022-09-11T05:17:04.327Z,3.15
2022-09-11T05:19:36.352Z,4.05
2022-09-11T05:22:04.472Z,5.88
2022-09-11T05:24:33.229Z,4.20
2022-09-11T05:27:01.377Z,4.40
2022-09-11T05:29:32.455Z,8.27
2022-09-11T05:32:09.735Z,2.72
2022-09-11T05:34:37.821Z,4.63
2022-09-11T05:37:07.943Z,4.72
2022-09-11T05:39:42.099Z,5.95
2022-09-11T05:42:11.896Z,5.63
2022-09-11T05:47:10.823Z,2.50
2022-09-11T05:49:39.767Z,3.13
2022-09-11T05:52:07.924Z,6.00
2022-09-11T05:54:36.309Z,5.22
2022-09-11T05:57:07.821Z,4.00
2022-09-11T05:59:38.694Z,3.55
2022-09-11T06:02:06.411Z,2.22
2022-09-11T06:04:44.933Z,5.10
2022-09-11T06:07:13.152Z,6.50
2022-09-11T06:09:42.667Z,5.55
2022-09-11T06:12:12.971Z,5.78
2022-09-11T06:14:44.561Z,6.82
2022-09-11T06:17:13.060Z,7.88
2022-09-11T06:19:40.978Z,7.60
2022-09-11T06:22:08.662Z,6.95
2022-09-11T06:24:42.367Z,7.45
2022-09-11T06:27:10.234Z,5.65
2022-09-11T06:29:45.039Z,4.95
2022-09-11T06:32:13.072Z,2.92
2022-09-11T06:34:41.317Z,3.50
2022-09-11T06:37:12.256Z,4.00
2022-09-11T06:42:10.829Z,4.35
2022-09-11T06:44:38.365Z,5.63
2022-09-11T06:47:07.179Z,4.38
2022-09-11T06:49:36.620Z,7.55
2022-09-11T06:52:34.830Z,4.93
2022-09-11T06:55:22.930Z,6.30
2022-09-11T06:57:59.001Z,6.35
2022-09-11T07:00:29.121Z,5.25
2022-09-11T07:02:57.120Z,4.50
2022-09-11T07:05:26.078Z,8.40
2022-09-11T07:07:55.613Z,7.50
2022-09-11T07:10:24.843Z,8.75
2022-09-11T07:12:58.146Z,11.07
2022-09-11T07:15:26.250Z,8.40
2022-09-11T07:17:55.504Z,10.70
2022-09-11T07:20:23.484Z,8.98
2022-09-11T07:22:51.907Z,6.63
2022-09-11T07:25:21.096Z,5.82
2022-09-11T07:27:48.674Z,8.80
2022-09-11T07:30:16.692Z,6.10
2022-09-11T07:32:47.124Z,11.48
2022-09-11T07:35:21.469Z,8.10
2022-09-11T07:37:52.121Z,9.55
2022-09-11T07:40:24.279Z,5.40
2022-09-11T07:42:51.865Z,8.88
2022-09-11T07:45:22.892Z,8.73
2022-09-11T07:47:51.175Z,7.78
2022-09-11T07:50:19.263Z,7.68
2022-09-11T07:52:46.854Z,8.45
2022-09-11T07:55:15.068Z,6.05
2022-09-11T07:57:43.027Z,9.20
2022-09-11T08:00:11.966Z,5.95
2022-09-11T08:03:00.762Z,8.98
2022-09-11T08:05:33.985Z,8.18
2022-09-11T08:08:01.848Z,6.38
2022-09-11T08:10:30.537Z,4.38
2022-09-11T08:13:00.088Z,3.90
2022-09-11T08:15:33.058Z,4.35
2022-09-11T08:18:02.231Z,7.03
2022-09-11T08:20:31.071Z,6.63
2022-09-11T08:22:58.817Z,4.20
2022-09-11T08:25:28.783Z,5.72
2022-09-11T08:27:57.920Z,8.52
2022-09-11T08:30:26.024Z,6.57
2022-09-11T08:32:53.801Z,6.82
2022-09-11T08:35:21.842Z,8.13
2022-09-11T08:37:54.130Z,6.93
2022-09-11T08:40:22.450Z,9.98
2022-09-11T08:42:50.333Z,6.43
2022-09-11T08:45:19.524Z,7.55
2022-09-11T08:47:55.810Z,9.90
2022-09-11T08:50:28.625Z,11.27
2022-09-11T08:52:58.396Z,7.50
2022-09-11T08:55:40.007Z,6.90
2022-09-11T08:58:31.456Z,11.45
2022-09-11T09:00:59.201Z,7.57
2022-09-11T09:03:49.281Z,11.00
2022-09-11T09:06:40.887Z,9.55
2022-09-11T09:09:19.451Z,17.65
2022-09-11T09:11:53.541Z,24.45
2022-09-11T09:14:47.028Z,15.10
2022-09-11T09:17:25.409Z,9.70
2022-09-11T09:19:57.789Z,10.95
2022-09-11T09:22:31.538Z,11.40
2022-09-11T09:25:01.858Z,10.63
2022-09-11T09:27:34.874Z,8.90
2022-09-11T09:30:05.689Z,7.32
2022-09-11T09:32:40.398Z,10.57
2022-09-11T09:35:16.901Z,10.15
2022-09-11T09:37:45.411Z,10.35
2022-09-11T09:40:15.775Z,9.25
2022-09-11T09:43:12.565Z,8.63
2022-09-11T09:46:16.387Z,20.00
2022-09-11T09:48:45.225Z,19.88
2022-09-11T09:51:13.814Z,20.02
2022-09-11T09:54:01.448Z,28.70
2022-09-11T09:56:31.163Z,27.08
2022-09-11T09:59:15.495Z,22.95
2022-09-11T10:01:47.897Z,34.03
2022-09-11T10:04:19.585Z,29.85
2022-09-11T10:06:48.409Z,79.20
2022-09-11T10:09:24.552Z,102.70
2022-09-11T10:12:12.870Z,100.85
2022-09-11T10:14:52.248Z,116.32
2022-09-11T10:17:32.992Z,90.13
2022-09-11T10:20:15.905Z,91.63
2022-09-11T10:22:44.051Z,29.70
2022-09-11T10:25:15.956Z,20.23
2022-09-11T10:28:03.654Z,24.65
2022-09-11T10:30:32.490Z,17.35
2022-09-11T10:33:03.693Z,16.92
2022-09-11T10:35:34.183Z,17.17
2022-09-11T10:38:20.796Z,18.45
2022-09-11T10:41:06.895Z,13.25
2022-09-11T10:43:47.584Z,14.00
2022-09-11T10:46:18.049Z,11.20
2022-09-11T10:49:04.091Z,6.90
2022-09-11T10:51:45.530Z,10.50
2022-09-11T10:54:22.271Z,9.45
2022-09-11T10:57:00.358Z,10.00
2022-09-11T10:59:41.932Z,9.27
2022-09-11T11:04:43.264Z,7.63
2022-09-11T11:07:22.848Z,7.55
2022-09-11T11:10:01.571Z,6.93
2022-09-11T11:12:46.684Z,9.55
2022-09-11T11:15:30.186Z,8.90
2022-09-11T11:18:19.256Z,7.30
2022-09-11T11:20:53.097Z,8.40
2022-09-11T11:23:36.147Z,8.70
2022-09-11T11:26:19.734Z,8.23
2022-09-11T11:28:54.439Z,14.48
2022-09-11T11:31:40.246Z,7.15
2022-09-11T11:34:23.173Z,10.55
2022-09-11T11:37:09.353Z,7.53
2022-09-11T11:39:45.020Z,11.80
2022-09-11T11:42:26.955Z,11.57
2022-09-11T11:44:59.444Z,8.63
2022-09-11T11:47:32.780Z,10.00
2022-09-11T11:50:18.788Z,7.88
2022-09-11T11:53:07.340Z,14.27
2022-09-11T11:55:39.575Z,13.90
2022-09-11T11:58:14.611Z,11.05
2022-09-11T12:00:44.482Z,15.30
2022-09-11T12:03:18.886Z,17.30
2022-09-11T12:05:46.403Z,12.32
2022-09-11T12:08:14.768Z,11.60
2022-09-11T12:10:45.736Z,8.55
2022-09-11T12:13:15.644Z,10.02
2022-09-11T12:16:11.361Z,12.90
2022-09-11T12:18:39.296Z,12.60
2022-09-11T12:21:25.338Z,8.00
2022-09-11T12:24:00.091Z,13.27
2022-09-11T12:26:28.300Z,11.30
2022-09-11T12:29:20.320Z,11.68
2022-09-11T12:31:51.045Z,12.63
2022-09-11T12:34:26.188Z,10.23
2022-09-11T12:36:59.821Z,8.60
2022-09-11T12:39:32.069Z,10.63
2022-09-11T12:42:26.003Z,6.78
2022-09-11T12:44:54.292Z,8.88
2022-09-11T12:47:24.965Z,7.13
2022-09-11T12:50:04.463Z,5.63
2022-09-11T12:52:45.604Z,7.28
2022-09-11T12:55:40.996Z,11.30
2022-09-11T12:58:34.296Z,13.93
2022-09-11T13:01:15.532Z,8.43
2022-09-11T13:04:13.384Z,7.53
2022-09-11T13:06:56.451Z,7.32
2022-09-11T13:09:29.289Z,9.27
2022-09-11T13:11:57.995Z,7.53
2022-09-11T13:14:33.100Z,7.50
2022-09-11T13:17:05.093Z,5.93
2022-09-11T13:19:34.201Z,8.75
2022-09-11T13:22:01.863Z,10.02
2022-09-11T13:24:34.131Z,6.53
2022-09-11T13:27:09.573Z,9.68
2022-09-11T13:29:38.636Z,8.13
2022-09-11T13:32:11.599Z,15.23
2022-09-11T13:34:39.277Z,9.73
2022-09-11T13:37:14.672Z,13.25
2022-09-11T13:39:42.879Z,10.25
2022-09-11T13:42:16.425Z,15.10
2022-09-11T13:44:47.725Z,17.27
2022-09-11T13:47:25.132Z,18.58
2022-09-11T13:50:03.524Z,20.13
2022-09-11T13:52:33.321Z,15.02
2022-09-11T13:55:10.492Z,13.57
2022-09-11T13:57:58.686Z,12.48
2022-09-11T14:00:55.883Z,12.40
2022-09-11T14:03:32.345Z,10.45
2022-09-11T14:06:01.386Z,14.77
2022-09-11T14:08:36.529Z,13.43
2022-09-11T14:11:13.475Z,12.80
2022-09-11T14:13:51.227Z,9.23
2022-09-11T14:16:29.509Z,10.82
2022-09-11T14:19:13.453Z,11.02
2022-09-11T14:21:45.992Z,11.13
2022-09-11T14:24:26.174Z,10.32
2022-09-11T14:26:53.776Z,13.38
2022-09-11T14:29:24.428Z,11.20
2022-09-11T14:31:53.276Z,13.60
2022-09-11T14:34:30.185Z,11.82
2022-09-11T14:37:03.273Z,15.35
2022-09-11T14:39:37.049Z,15.52
2022-09-11T14:42:10.439Z,14.32
2022-09-11T14:44:40.439Z,15.45
2022-09-11T14:47:13.848Z,11.13
2022-09-11T14:49:41.460Z,18.42
2022-09-11T14:52:10.336Z,15.68
2022-09-11T14:54:37.860Z,12.90
2022-09-11T14:57:15.200Z,16.85
2022-09-11T14:59:45.641Z,15.75
2022-09-11T15:02:14.353Z,15.38
2022-09-11T15:04:41.892Z,18.25
2022-09-11T15:07:11.992Z,15.45
2022-09-11T15:09:40.274Z,12.98
2022-09-11T15:12:08.442Z,16.40
2022-09-11T15:14:55.637Z,12.13
2022-09-11T15:17:25.495Z,18.17
2022-09-11T15:19:53.597Z,19.35
2022-09-11T15:22:21.137Z,14.68
2022-09-11T15:24:48.999Z,16.35
2022-09-11T15:27:17.303Z,11.07
2022-09-11T15:29:45.397Z,14.50
2022-09-11T15:32:14.579Z,11.18
2022-09-11T15:34:42.527Z,16.27
2022-09-11T15:37:11.825Z,14.32
2022-09-11T15:39:39.608Z,15.30
2022-09-11T15:42:07.654Z,17.10
2022-09-11T15:44:35.420Z,13.43
2022-09-11T15:47:04.364Z,15.80
2022-09-11T15:49:33.205Z,11.98
2022-09-11T15:52:01.261Z,18.02
2022-09-11T15:54:29.649Z,15.45
2022-09-11T15:56:57.215Z,15.45
2022-09-11T15:59:24.750Z,19.23
2022-09-11T16:01:52.433Z,12.55
2022-09-11T16:04:21.372Z,11.88
2022-09-11T16:06:50.218Z,17.17
2022-09-11T16:09:19.953Z,12.02
2022-09-11T16:11:50.927Z,13.40
2022-09-11T16:14:27.235Z,12.57
2022-09-11T16:16:56.360Z,15.82
2022-09-11T16:19:27.587Z,13.05
2022-09-11T16:24:25.588Z,16.05
2022-09-11T16:26:56.166Z,16.45
2022-09-11T16:29:25.941Z,21.45
2022-09-11T16:31:56.912Z,15.07
2022-09-11T16:34:24.361Z,17.27
2022-09-11T16:36:52.391Z,14.10
2022-09-11T16:39:19.955Z,16.02
2022-09-11T16:41:47.847Z,18.35
2022-09-11T16:44:16.395Z,15.07
2022-09-11T16:46:44.434Z,19.85
2022-09-11T16:49:16.815Z,14.55
2022-09-11T16:51:45.285Z,15.73
2022-09-11T16:54:13.307Z,13.45
2022-09-11T16:56:45.754Z,16.13
2022-09-11T16:59:13.669Z,23.08
2022-09-11T17:01:41.842Z,14.57
2022-09-11T17:08:46.432Z,17.08
2022-09-11T17:11:16.452Z,13.23
2022-09-11T17:13:44.751Z,12.13
2022-09-11T17:16:20.941Z,14.32
2022-09-11T17:18:49.659Z,13.15
2022-09-11T17:21:17.480Z,12.45
2022-09-11T17:23:45.458Z,16.67
2022-09-11T17:26:14.144Z,12.02
2022-09-11T17:28:42.932Z,12.45
2022-09-11T17:31:10.988Z,18.02
2022-09-11T17:33:40.380Z,17.48
2022-09-11T17:36:10.041Z,13.45
2022-09-11T17:38:38.568Z,18.55
2022-09-11T17:41:07.200Z,13.63
2022-09-11T17:43:35.440Z,13.45
2022-09-11T17:46:08.328Z,16.13
2022-09-11T17:48:36.388Z,17.02
2022-09-11T17:51:08.189Z,21.48
2022-09-11T17:53:38.490Z,18.98
2022-09-11T17:56:09.847Z,16.05
2022-09-11T17:58:38.538Z,17.75
2022-09-11T18:01:06.329Z,18.15
2022-09-11T18:03:34.403Z,16.95
2022-09-11T18:06:02.779Z,19.20
2022-09-11T18:08:32.956Z,23.98
2022-09-11T18:11:01.300Z,30.50
2022-09-11T18:13:31.969Z,17.38
2022-09-11T18:16:00.022Z,21.85
2022-09-11T18:18:27.858Z,20.15
2022-09-11T18:20:55.629Z,26.58
2022-09-11T18:23:23.411Z,21.55
2022-09-11T18:25:51.693Z,21.10
2022-09-11T18:28:20.101Z,22.92
2022-09-11T18:30:49.383Z,24.35
2022-09-11T18:33:17.410Z,23.95
2022-09-11T18:35:46.743Z,32.80
2022-09-11T18:38:14.441Z,27.25
2022-09-11T18:40:41.977Z,26.45
2022-09-11T18:43:09.519Z,23.67
2022-09-11T18:45:37.129Z,22.50
2022-09-11T18:48:05.121Z,24.80
2022-09-11T18:50:32.721Z,27.48
2022-09-11T18:53:01.211Z,26.35
2022-09-11T18:55:29.530Z,22.23
2022-09-11T18:57:57.329Z,25.70
2022-09-11T19:00:24.859Z,24.60
2022-09-11T19:02:54.871Z,24.05
2022-09-11T19:05:23.285Z,27.75
2022-09-11T19:07:51.022Z,24.70
2022-09-11T19:10:18.652Z,26.92
2022-09-11T19:12:48.199Z,23.67
2022-09-11T19:15:16.993Z,22.83
2022-09-11T19:17:47.750Z,21.08
2022-09-11T19:20:16.565Z,25.20
2022-09-11T19:22:44.492Z,21.75
2022-09-11T19:25:12.271Z,23.40
2022-09-11T19:27:39.922Z,24.42
2022-09-11T19:30:08.858Z,19.10
2022-09-11T19:32:37.504Z,20.38
2022-09-11T19:35:05.387Z,21.92
2022-09-11T19:37:33.739Z,21.83
2022-09-11T19:40:01.501Z,20.85
2022-09-11T19:42:29.460Z,23.17
2022-09-11T19:44:56.926Z,18.60
2022-09-11T19:47:25.668Z,26.35
2022-09-11T19:49:54.430Z,19.30
2022-09-11T19:52:22.140Z,19.45
2022-09-11T19:54:49.810Z,19.38
2022-09-11T19:57:18.040Z,22.73
2022-09-11T19:59:45.547Z,19.10
2022-09-11T20:02:13.076Z,18.17
2022-09-11T20:04:40.664Z,17.75
2022-09-11T20:07:08.147Z,18.65
2022-09-11T20:09:35.649Z,19.10
2022-09-11T20:12:03.525Z,13.88
2022-09-11T20:14:31.333Z,14.80
2022-09-11T20:17:01.195Z,23.27
2022-09-11T20:19:29.045Z,17.00
2022-09-11T20:21:56.783Z,15.25
2022-09-11T20:24:24.413Z,12.30
2022-09-11T20:26:53.307Z,14.73
2022-09-11T20:29:20.761Z,17.63
2022-09-11T20:31:51.239Z,11.82
2022-09-11T20:34:19.503Z,13.10
2022-09-11T20:36:47.180Z,12.48
2022-09-11T20:39:15.406Z,12.93
2022-09-11T20:41:43.199Z,15.15
2022-09-11T20:44:10.755Z,13.52
2022-09-11T20:46:40.146Z,12.68
2022-09-11T20:49:07.801Z,11.30
2022-09-11T20:51:35.468Z,13.32
2022-09-11T20:54:03.032Z,12.45
2022-09-11T20:56:30.824Z,12.50
2022-09-11T20:59:00.685Z,11.55
2022-09-11T21:01:32.503Z,13.30
2022-09-11T21:04:01.082Z,13.73
2022-09-11T21:06:30.653Z,15.38
2022-09-11T21:09:00.030Z,12.02
2022-09-11T21:11:28.390Z,10.45
2022-09-11T21:13:56.044Z,8.73
2022-09-11T21:16:24.266Z,12.50
2022-09-11T21:18:57.422Z,13.07
2022-09-11T21:21:25.728Z,20.42
2022-09-11T21:23:57.072Z,8.35
2022-09-11T21:26:26.400Z,10.88
2022-09-11T21:28:53.998Z,11.15
2022-09-11T21:31:21.548Z,12.80
2022-09-11T21:33:49.173Z,13.90
2022-09-11T21:36:16.874Z,14.27
2022-09-11T21:38:44.431Z,9.55
2022-09-11T21:41:12.353Z,8.10
2022-09-11T21:43:39.944Z,14.82
2022-09-11T21:46:08.097Z,11.15
2022-09-11T21:48:37.056Z,14.93
2022-09-11T21:51:15.736Z,15.15
2022-09-11T21:53:45.028Z,11.93
2022-09-11T21:56:20.674Z,13.68
2022-09-11T21:58:48.948Z,8.43
2022-09-11T22:01:16.573Z,9.70
2022-09-11T22:03:45.048Z,11.25
2022-09-11T22:06:14.936Z,9.07
2022-09-11T22:08:43.214Z,9.40
2022-09-11T22:11:11.808Z,9.88
2022-09-11T22:13:39.911Z,8.07
2022-09-11T22:16:09.774Z,9.30
2022-09-11T22:18:38.162Z,18.40
2022-09-11T22:21:05.910Z,9.45
2022-09-11T22:23:34.149Z,11.30
2022-09-11T22:26:02.113Z,11.57
2022-09-11T22:28:30.018Z,11.65
2022-09-11T22:30:57.564Z,13.75
2022-09-11T22:33:25.476Z,11.18
2022-09-11T22:35:52.993Z,15.05
2022-09-11T22:38:20.485Z,8.10
2022-09-11T22:40:57.136Z,8.20
2022-09-11T22:43:25.109Z,11.25
2022-09-11T22:45:53.752Z,12.43
2022-09-11T22:48:21.608Z,10.95
2022-09-11T22:50:49.558Z,8.60
2022-09-11T22:53:17.072Z,12.23
2022-09-11T22:55:45.192Z,10.50
2022-09-11T22:58:12.736Z,9.77
2022-09-11T23:00:40.998Z,10.02
2022-09-11T23:03:08.675Z,12.57
2022-09-11T23:05:54.710Z,11.13
2022-09-11T23:08:26.324Z,13.15
2022-09-11T23:10:54.375Z,9.77
2022-09-11T23:13:22.224Z,12.43
2022-09-11T23:15:49.809Z,13.82
2022-09-11T23:18:17.512Z,11.15
2022-09-11T23:20:45.633Z,11.85
2022-09-11T23:23:13.351Z,11.50
2022-09-11T23:25:42.312Z,11.68
2022-09-11T23:28:09.800Z,12.27
2022-09-11T23:30:40.728Z,10.15
2022-09-11T23:33:08.237Z,6.70
2022-09-11T23:35:39.594Z,14.82
2022-09-11T23:38:07.522Z,16.30
2022-09-11T23:40:35.008Z,14.82
2022-09-11T23:43:02.495Z,12.93
2022-09-11T23:45:30.047Z,12.50
2022-09-11T23:47:57.622Z,10.73
2022-09-11T23:50:25.223Z,9.68
2022-09-11T23:52:52.830Z,16.58
2022-09-11T23:55:21.211Z,12.10
2022-09-11T23:57:53.504Z,14.32
